createdAt,value
2023-01-13T00:01:25.935Z,95885.38
2023-01-13T00:03:52.672Z,95867.06
2023-01-13T00:06:22.109Z,95865.34
2023-01-13T00:08:49.757Z,95857.69
2023-01-13T00:11:17.510Z,95866.72
2023-01-13T00:13:43.992Z,95869.25
2023-01-13T00:16:14.446Z,95867.91
2023-01-13T00:18:41.527Z,95843.03
2023-01-13T00:21:27.440Z,95859.34
2023-01-13T00:23:54.889Z,95857.81
2023-01-13T00:26:24.809Z,95849.66
2023-01-13T00:28:55.780Z,95853.94
2023-01-13T00:31:22.260Z,95838.38
2023-01-13T00:33:49.362Z,95839.81
2023-01-13T00:36:17.464Z,95840.38
2023-01-13T00:38:44.576Z,95833.44
2023-01-13T00:41:14.040Z,95822.81
2023-01-13T00:43:41.294Z,95828.97
2023-01-13T00:46:10.131Z,95820.94
2023-01-13T00:48:37.740Z,95815.47
2023-01-13T00:51:13.445Z,95811.09
2023-01-13T00:53:43.516Z,95811.56
2023-01-13T00:56:18.233Z,95808.78
2023-01-13T00:58:47.517Z,95802.69
2023-01-13T01:01:19.512Z,95802.13
2023-01-13T01:03:54.081Z,95809.63
2023-01-13T01:06:26.296Z,95805.72
2023-01-13T01:08:54.931Z,95804.53
2023-01-13T01:11:31.599Z,95809.22
2023-01-13T01:14:01.604Z,95801.81
2023-01-13T01:16:30.760Z,95803.16
2023-01-13T01:18:58.168Z,95797.16
2023-01-13T01:21:27.939Z,95812.06
2023-01-13T01:23:55.301Z,95808.53
2023-01-13T01:26:24.961Z,95814.19
2023-01-13T01:28:51.884Z,95821.25
2023-01-13T01:31:24.662Z,95802.81
2023-01-13T01:33:51.578Z,95798.75
2023-01-13T01:36:20.194Z,95803.56
2023-01-13T01:38:47.928Z,95821.47
2023-01-13T01:41:17.846Z,95818.88
2023-01-13T01:44:00.653Z,95809.16
2023-01-13T01:46:32.595Z,95813.69
2023-01-13T01:49:35.475Z,95816.63
2023-01-13T01:52:16.277Z,95827.00
2023-01-13T01:54:53.806Z,95826.13
2023-01-13T01:57:30.424Z,95819.75
2023-01-13T01:59:59.768Z,95802.19
2023-01-13T02:02:28.106Z,95813.59
2023-01-13T02:04:55.016Z,95815.09
2023-01-13T02:07:26.075Z,95800.84
2023-01-13T02:09:55.538Z,95793.22
2023-01-13T02:12:23.735Z,95783.91
2023-01-13T02:14:50.192Z,95777.84
2023-01-13T02:17:30.421Z,95776.25
2023-01-13T02:20:05.978Z,95779.13
2023-01-13T02:22:32.367Z,95778.91
2023-01-13T02:25:32.812Z,95779.72
2023-01-13T02:28:27.579Z,95771.91
2023-01-13T02:31:06.912Z,95773.44
2023-01-13T02:33:39.947Z,95752.44
2023-01-13T02:36:31.624Z,95764.09
2023-01-13T02:39:09.887Z,95756.13
2023-01-13T02:42:09.964Z,95769.63
2023-01-13T02:44:47.581Z,95751.47
2023-01-13T02:47:30.448Z,95751.78
2023-01-13T02:50:17.464Z,95747.78
2023-01-13T02:53:03.559Z,95740.66
2023-01-13T02:55:38.178Z,95754.41
2023-01-13T02:58:10.310Z,95733.22
2023-01-13T03:00:38.006Z,95745.75
2023-01-13T03:03:04.579Z,95749.75
2023-01-13T03:05:33.238Z,95749.00
2023-01-13T03:08:21.504Z,95748.94
2023-01-13T03:11:05.682Z,95744.19
2023-01-13T03:14:00.227Z,95744.34
2023-01-13T03:16:48.705Z,95736.03
2023-01-13T03:19:21.391Z,95744.50
2023-01-13T03:22:07.155Z,95749.91
2023-01-13T03:24:42.643Z,95738.63
2023-01-13T03:27:30.076Z,95743.59
2023-01-13T03:30:22.093Z,95746.31
2023-01-13T03:33:20.917Z,95741.75
2023-01-13T03:35:52.991Z,95746.72
2023-01-13T03:38:33.512Z,95747.19
2023-01-13T03:41:09.889Z,95753.03
2023-01-13T03:43:44.854Z,95746.72
2023-01-13T03:46:26.488Z,95752.84
2023-01-13T03:48:58.351Z,95746.81
2023-01-13T03:51:29.252Z,95744.13
2023-01-13T03:54:02.976Z,95760.72
2023-01-13T03:56:44.860Z,95768.81
2023-01-13T03:59:19.637Z,95755.75
2023-01-13T04:01:54.291Z,95771.28
2023-01-13T04:04:31.501Z,95762.44
2023-01-13T04:07:13.054Z,95769.91
2023-01-13T04:09:50.550Z,95771.28
2023-01-13T04:12:30.706Z,95769.16
2023-01-13T04:14:57.259Z,95789.72
2023-01-13T04:17:23.799Z,95793.53
2023-01-13T04:19:50.294Z,95785.06
2023-01-13T04:22:16.764Z,95786.78
2023-01-13T04:24:43.210Z,95781.66
2023-01-13T04:27:09.734Z,95792.13
2023-01-13T04:29:36.207Z,95788.81
2023-01-13T04:32:02.677Z,95798.72
2023-01-13T04:34:29.172Z,95795.72
2023-01-13T04:36:55.622Z,95798.72
2023-01-13T04:39:22.079Z,95796.88
2023-01-13T04:41:48.566Z,95787.75
2023-01-13T04:44:15.079Z,95793.41
2023-01-13T04:46:41.549Z,95798.91
2023-01-13T04:49:08.002Z,95803.06
2023-01-13T04:51:34.463Z,95797.97
2023-01-13T04:54:00.957Z,95799.41
2023-01-13T04:56:27.391Z,95803.09
2023-01-13T04:58:53.842Z,95809.34
2023-01-13T05:01:20.399Z,95799.97
2023-01-13T05:03:47.037Z,95803.81
2023-01-13T05:06:13.956Z,95806.84
2023-01-13T05:08:40.416Z,95806.72
2023-01-13T05:11:06.889Z,95805.31
2023-01-13T05:13:33.376Z,95804.88
2023-01-13T05:16:01.182Z,95805.88
2023-01-13T05:18:30.611Z,95807.88
2023-01-13T05:20:57.091Z,95808.47
2023-01-13T05:23:23.589Z,95808.91
2023-01-13T05:25:50.160Z,95817.31
2023-01-13T05:28:16.726Z,95811.78
2023-01-13T05:30:46.347Z,95813.13
2023-01-13T05:33:16.574Z,95808.13
2023-01-13T05:35:45.938Z,95821.41
2023-01-13T05:38:14.179Z,95802.19
2023-01-13T05:40:41.396Z,95814.00
2023-01-13T05:43:16.553Z,95805.88
2023-01-13T05:45:43.008Z,95808.22
2023-01-13T05:48:09.489Z,95804.09
2023-01-13T05:50:35.971Z,95799.69
2023-01-13T05:53:02.439Z,95811.47
2023-01-13T05:55:28.928Z,95805.44
2023-01-13T05:57:55.393Z,95806.84
2023-01-13T06:00:21.945Z,95802.41
2023-01-13T06:02:48.434Z,95803.53
2023-01-13T06:05:15.352Z,95810.03
2023-01-13T06:07:41.820Z,95811.25
2023-01-13T06:10:09.132Z,95800.78
2023-01-13T06:12:35.594Z,95796.22
2023-01-13T06:15:02.059Z,95796.09
2023-01-13T06:17:28.525Z,95794.03
2023-01-13T06:19:55.020Z,95792.53
2023-01-13T06:22:21.515Z,95794.97
2023-01-13T06:24:50.592Z,95790.03
2023-01-13T06:27:18.438Z,95790.19
2023-01-13T06:29:44.991Z,95808.22
2023-01-13T06:32:18.285Z,95799.00
2023-01-13T06:34:51.737Z,95787.59
2023-01-13T06:37:21.851Z,95795.31
2023-01-13T06:39:49.248Z,95803.03
2023-01-13T06:42:15.816Z,95793.22
2023-01-13T06:44:43.857Z,95797.78
2023-01-13T06:47:10.488Z,95804.66
2023-01-13T06:49:37.018Z,95807.69
2023-01-13T06:52:03.584Z,95807.25
2023-01-13T06:54:30.051Z,95819.78
2023-01-13T06:56:56.548Z,95823.91
2023-01-13T06:59:23.090Z,95826.97
2023-01-13T07:01:49.802Z,95837.13
2023-01-13T07:04:16.625Z,95843.97
2023-01-13T07:06:43.160Z,95840.69
2023-01-13T07:09:09.684Z,95837.69
2023-01-13T07:11:36.171Z,95840.72
2023-01-13T07:14:02.685Z,95852.28
2023-01-13T07:16:29.282Z,95850.91
2023-01-13T07:18:56.158Z,95846.34
2023-01-13T07:21:22.620Z,95853.66
2023-01-13T07:23:49.072Z,95855.03
2023-01-13T07:26:16.097Z,95858.59
2023-01-13T07:28:42.596Z,95871.41
2023-01-13T07:31:18.489Z,95871.56
2023-01-13T07:33:45.454Z,95862.47
2023-01-13T07:36:12.667Z,95869.63
2023-01-13T07:38:39.903Z,95867.72
2023-01-13T07:41:07.161Z,95863.59
2023-01-13T07:43:33.674Z,95873.19
2023-01-13T07:46:05.858Z,95865.50
2023-01-13T07:48:34.328Z,95871.13
2023-01-13T07:51:06.611Z,95872.00
2023-01-13T07:53:34.011Z,95879.28
2023-01-13T07:56:01.829Z,95880.41
2023-01-13T07:58:28.698Z,95883.81
2023-01-13T08:00:56.245Z,95887.84
2023-01-13T08:03:23.794Z,95898.31
2023-01-13T08:05:50.962Z,95887.84
2023-01-13T08:08:17.691Z,95871.97
2023-01-13T08:10:44.337Z,95878.72
2023-01-13T08:13:12.062Z,95887.25
2023-01-13T08:15:38.534Z,95896.03
2023-01-13T08:18:05.076Z,95895.22
2023-01-13T08:20:31.544Z,95886.19
2023-01-13T08:22:59.600Z,95883.56
2023-01-13T08:25:27.599Z,95881.47
2023-01-13T08:27:55.115Z,95887.25
2023-01-13T08:30:22.521Z,95881.75
2023-01-13T08:32:50.250Z,95891.13
2023-01-13T08:35:18.028Z,95897.44
2023-01-13T08:37:46.060Z,95898.84
2023-01-13T08:40:14.263Z,95902.03
2023-01-13T08:42:41.088Z,95904.88
2023-01-13T08:45:09.899Z,95908.72
2023-01-13T08:47:36.426Z,95910.78
2023-01-13T08:50:04.194Z,95918.66
2023-01-13T08:52:31.012Z,95922.41
2023-01-13T08:54:57.497Z,95937.28
2023-01-13T08:57:24.109Z,95953.13
2023-01-13T08:59:50.698Z,95940.16
2023-01-13T09:02:20.254Z,95948.41
2023-01-13T09:04:47.975Z,95956.44
2023-01-13T09:07:15.463Z,95953.13
2023-01-13T09:09:42.837Z,95957.75
2023-01-13T09:12:15.180Z,95948.94
2023-01-13T09:14:41.654Z,95971.25
2023-01-13T09:17:08.128Z,95971.59
2023-01-13T09:19:34.795Z,95972.41
2023-01-13T09:22:01.881Z,95966.91
2023-01-13T09:24:29.337Z,95974.34
2023-01-13T09:26:55.915Z,95969.38
2023-01-13T09:29:22.746Z,95965.78
2023-01-13T09:31:49.568Z,95971.00
2023-01-13T09:34:19.277Z,95961.03
2023-01-13T09:36:45.838Z,95952.47
2023-01-13T09:39:12.789Z,95957.25
2023-01-13T09:41:53.244Z,95958.56
2023-01-13T09:44:28.945Z,95958.19
2023-01-13T09:47:03.420Z,95967.00
2023-01-13T09:49:41.873Z,95970.22
2023-01-13T09:52:24.143Z,95979.16
2023-01-13T09:55:03.197Z,95985.78
2023-01-13T09:57:35.972Z,95976.78
2023-01-13T10:00:10.604Z,95977.31
2023-01-13T10:03:14.743Z,95967.88
2023-01-13T10:05:47.532Z,95955.56
2023-01-13T10:08:22.686Z,95963.88
2023-01-13T10:10:53.824Z,95962.38
2023-01-13T10:13:28.301Z,95968.69
2023-01-13T10:16:01.998Z,95959.22
2023-01-13T10:18:41.434Z,95966.09
2023-01-13T10:21:45.461Z,95972.34
2023-01-13T10:24:20.048Z,95958.56
2023-01-13T10:27:03.231Z,95956.22
2023-01-13T10:29:31.675Z,95950.47
2023-01-13T10:32:00.284Z,95945.88
2023-01-13T10:34:29.279Z,95943.47
2023-01-13T10:36:57.574Z,95953.63
2023-01-13T10:39:25.403Z,95952.81
2023-01-13T10:42:03.114Z,95952.13
2023-01-13T10:44:29.607Z,95946.75
2023-01-13T10:46:58.698Z,95946.31
2023-01-13T10:49:37.369Z,95956.63
2023-01-13T10:52:25.581Z,95947.09
2023-01-13T10:54:54.184Z,95933.22
2023-01-13T10:57:26.371Z,95923.94
2023-01-13T10:59:53.540Z,95920.78
2023-01-13T11:02:34.635Z,95912.69
2023-01-13T11:05:24.601Z,95918.03
2023-01-13T11:07:52.045Z,95910.75
2023-01-13T11:10:26.499Z,95906.59
2023-01-13T11:12:59.150Z,95908.91
2023-01-13T11:15:40.618Z,95921.47
2023-01-13T11:18:38.693Z,95916.13
2023-01-13T11:21:17.335Z,95906.25
2023-01-13T11:23:51.958Z,95910.63
2023-01-13T11:26:32.853Z,95916.03
2023-01-13T11:29:12.812Z,95919.78
2023-01-13T11:32:00.457Z,95921.81
2023-01-13T11:34:34.739Z,95906.41
2023-01-13T11:37:09.340Z,95906.38
2023-01-13T11:40:00.387Z,95913.44
2023-01-13T11:42:26.832Z,95908.56
2023-01-13T11:45:29.260Z,95918.91
2023-01-13T11:48:00.378Z,95923.19
2023-01-13T11:50:55.821Z,95927.69
2023-01-13T11:53:44.049Z,95918.41
2023-01-13T11:56:35.964Z,95915.34
2023-01-13T11:59:31.189Z,95915.53
2023-01-13T12:02:20.972Z,95915.53
2023-01-13T12:05:06.220Z,95920.19
2023-01-13T12:07:44.661Z,95943.44
2023-01-13T12:10:49.221Z,95931.16
2023-01-13T12:13:44.201Z,95936.47
2023-01-13T12:16:29.422Z,95937.53
2023-01-13T12:19:15.203Z,95938.19
2023-01-13T12:21:54.311Z,95929.88
2023-01-13T12:24:30.891Z,95932.19
2023-01-13T12:27:10.924Z,95928.31
2023-01-13T12:29:38.774Z,95927.91
2023-01-13T12:32:14.199Z,95935.31
2023-01-13T12:35:02.259Z,95928.34
2023-01-13T12:37:31.644Z,95940.16
2023-01-13T12:40:13.538Z,95940.16
2023-01-13T12:43:05.268Z,95948.19
2023-01-13T12:45:33.537Z,95945.41
2023-01-13T12:48:00.758Z,95945.09
2023-01-13T12:50:27.190Z,95952.50
2023-01-13T12:53:21.499Z,95946.13
2023-01-13T12:55:52.082Z,95946.34
2023-01-13T12:58:28.329Z,95936.59
2023-01-13T13:01:00.896Z,95933.72
2023-01-13T13:03:35.457Z,95936.53
2023-01-13T13:06:10.275Z,95933.69
2023-01-13T13:09:04.271Z,95917.84
2023-01-13T13:11:43.449Z,95935.53
2023-01-13T13:14:13.082Z,95931.16
2023-01-13T13:16:51.224Z,95943.88
2023-01-13T13:19:17.673Z,95941.22
2023-01-13T13:22:11.858Z,95944.41
2023-01-13T13:24:43.910Z,95946.88
2023-01-13T13:27:27.176Z,95951.31
2023-01-13T13:30:22.021Z,95949.34
2023-01-13T13:33:15.347Z,95941.00
2023-01-13T13:36:04.114Z,95947.44
2023-01-13T13:38:54.802Z,95938.56
2023-01-13T13:41:24.465Z,95946.50
2023-01-13T13:43:51.310Z,95950.28
2023-01-13T13:46:24.597Z,95943.50
2023-01-13T13:48:53.923Z,95946.97
2023-01-13T13:51:40.042Z,95961.41
2023-01-13T13:54:12.643Z,95960.38
2023-01-13T13:56:44.749Z,95958.00
2023-01-13T13:59:14.896Z,95953.66
2023-01-13T14:01:44.886Z,95959.34
2023-01-13T14:04:18.255Z,95964.81
2023-01-13T14:06:55.531Z,95974.25
2023-01-13T14:09:24.402Z,95976.50
2023-01-13T14:12:18.093Z,95974.09
2023-01-13T14:14:46.751Z,95985.25
2023-01-13T14:17:33.157Z,95984.03
2023-01-13T14:20:03.176Z,95973.81
2023-01-13T14:22:29.689Z,95957.09
2023-01-13T14:24:56.343Z,95962.88
2023-01-13T14:27:28.098Z,95955.56
2023-01-13T14:29:58.393Z,95956.31
2023-01-13T14:32:34.929Z,95954.38
2023-01-13T14:35:01.965Z,95949.34
2023-01-13T14:37:28.382Z,95956.84
2023-01-13T14:39:54.847Z,95956.00
2023-01-13T14:42:21.451Z,95962.59
2023-01-13T14:44:50.876Z,95972.59
2023-01-13T14:47:21.759Z,95971.84
2023-01-13T14:50:16.261Z,95987.00
2023-01-13T14:52:51.457Z,95983.56
2023-01-13T14:55:22.846Z,95990.88
2023-01-13T14:57:49.513Z,95997.69
2023-01-13T15:00:16.049Z,95995.91
2023-01-13T15:02:57.864Z,95991.47
2023-01-13T15:05:27.249Z,96005.97
2023-01-13T15:08:11.626Z,96007.41
2023-01-13T15:10:54.770Z,96020.84
2023-01-13T15:13:33.100Z,96018.41
2023-01-13T15:16:21.691Z,96020.03
2023-01-13T15:18:48.610Z,96017.75
2023-01-13T15:21:15.843Z,96026.25
2023-01-13T15:23:43.505Z,96026.19
2023-01-13T15:26:15.771Z,96031.13
2023-01-13T15:28:42.291Z,96035.09
2023-01-13T15:31:09.442Z,96040.53
2023-01-13T15:33:35.933Z,96052.44
2023-01-13T15:36:02.471Z,96058.91
2023-01-13T15:38:29.024Z,96049.66
2023-01-13T15:40:55.558Z,96061.63
2023-01-13T15:43:23.708Z,96066.13
2023-01-13T15:45:50.668Z,96080.25
2023-01-13T15:48:19.913Z,96083.69
2023-01-13T15:50:46.455Z,96077.22
2023-01-13T15:53:14.538Z,96070.94
2023-01-13T15:55:45.091Z,96074.09
2023-01-13T15:58:13.807Z,96084.16
2023-01-13T16:00:41.822Z,96082.59
2023-01-13T16:03:15.219Z,96091.50
2023-01-13T16:05:43.279Z,96088.38
2023-01-13T16:08:21.456Z,96084.75
2023-01-13T16:10:49.239Z,96081.00
2023-01-13T16:13:16.557Z,96078.97
2023-01-13T16:15:48.118Z,96075.00
2023-01-13T16:18:21.147Z,96082.34
2023-01-13T16:20:47.830Z,96085.13
2023-01-13T16:23:14.358Z,96091.34
2023-01-13T16:25:40.956Z,96093.25
2023-01-13T16:28:12.552Z,96096.22
2023-01-13T16:30:39.006Z,96095.50
2023-01-13T16:33:05.489Z,96096.59
2023-01-13T16:35:31.988Z,96104.34
2023-01-13T16:37:58.825Z,96105.25
2023-01-13T16:40:30.986Z,96112.53
2023-01-13T16:42:57.851Z,96118.19
2023-01-13T16:45:24.884Z,96126.16
2023-01-13T16:47:51.421Z,96134.53
2023-01-13T16:50:35.595Z,96134.34
2023-01-13T16:53:04.023Z,96143.31
2023-01-13T16:55:30.672Z,96150.78
2023-01-13T16:57:57.643Z,96160.81
2023-01-13T17:00:24.256Z,96172.91
2023-01-13T17:02:50.782Z,96176.34
2023-01-13T17:05:17.491Z,96184.16
2023-01-13T17:07:46.114Z,96178.84
2023-01-13T17:10:18.562Z,96181.56
2023-01-13T17:12:45.286Z,96193.97
2023-01-13T17:15:17.451Z,96188.94
2023-01-13T17:17:46.107Z,96193.81
2023-01-13T17:20:15.152Z,96188.25
2023-01-13T17:22:42.434Z,96190.28
2023-01-13T17:25:13.000Z,96187.50
2023-01-13T17:27:40.032Z,96188.41
2023-01-13T17:30:07.123Z,96199.16
2023-01-13T17:32:33.765Z,96201.28
2023-01-13T17:35:00.216Z,96204.47
2023-01-13T17:37:26.959Z,96205.25
2023-01-13T17:39:53.532Z,96203.41
2023-01-13T17:42:19.999Z,96212.69
2023-01-13T17:44:46.470Z,96209.53
2023-01-13T17:47:13.140Z,96192.50
2023-01-13T17:49:39.672Z,96199.31
2023-01-13T17:52:06.130Z,96207.06
2023-01-13T17:54:32.615Z,96203.16
2023-01-13T17:56:59.514Z,96204.47
2023-01-13T17:59:26.021Z,96208.56
2023-01-13T18:01:52.657Z,96208.69
2023-01-13T18:04:22.756Z,96205.91
2023-01-13T18:06:50.037Z,96206.09
2023-01-13T18:09:17.143Z,96221.16
2023-01-13T18:11:45.177Z,96219.66
2023-01-13T18:14:12.841Z,96234.38
2023-01-13T18:16:39.424Z,96235.28
2023-01-13T18:19:06.145Z,96240.78
2023-01-13T18:21:33.298Z,96246.88
2023-01-13T18:23:59.760Z,96248.22
2023-01-13T18:26:27.779Z,96251.19
2023-01-13T18:28:54.285Z,96253.84
2023-01-13T18:31:20.800Z,96254.50
2023-01-13T18:33:47.271Z,96260.16
2023-01-13T18:36:13.823Z,96261.16
2023-01-13T18:38:40.335Z,96261.44
2023-01-13T18:41:06.839Z,96258.81
2023-01-13T18:43:33.490Z,96261.19
2023-01-13T18:45:59.986Z,96263.94
2023-01-13T18:48:26.536Z,96260.94
2023-01-13T18:50:53.346Z,96254.31
2023-01-13T18:53:19.847Z,96262.31
2023-01-13T18:55:46.292Z,96263.41
2023-01-13T18:58:12.751Z,96270.59
2023-01-13T19:00:39.220Z,96272.13
2023-01-13T19:05:33.274Z,96290.28
2023-01-13T19:07:59.837Z,96291.41
2023-01-13T19:10:26.288Z,96303.22
2023-01-13T19:12:52.817Z,96292.91
2023-01-13T19:15:19.311Z,96307.66
2023-01-13T19:17:45.773Z,96306.66
2023-01-13T19:20:12.380Z,96309.78
2023-01-13T19:22:39.019Z,96305.22
2023-01-13T19:25:05.739Z,96309.34
2023-01-13T19:27:32.371Z,96307.13
2023-01-13T19:29:58.958Z,96306.13
2023-01-13T19:32:26.069Z,96303.38
2023-01-13T19:34:52.596Z,96302.66
2023-01-13T19:37:19.221Z,96320.81
2023-01-13T19:39:45.712Z,96328.69
2023-01-13T19:42:13.203Z,96347.16
2023-01-13T19:44:39.745Z,96368.09
2023-01-13T19:47:06.291Z,96349.03
2023-01-13T19:49:33.071Z,96349.59
2023-01-13T19:51:59.534Z,96350.81
2023-01-13T19:54:26.052Z,96344.91
2023-01-13T19:56:52.515Z,96345.72
2023-01-13T19:59:19.026Z,96344.06
2023-01-13T20:01:45.528Z,96355.25
2023-01-13T20:04:11.987Z,96359.34
2023-01-13T20:06:38.457Z,96357.88
2023-01-13T20:09:04.918Z,96361.19
2023-01-13T20:11:31.474Z,96362.59
2023-01-13T20:13:59.924Z,96361.75
2023-01-13T20:16:30.212Z,96346.81
2023-01-13T20:18:56.812Z,96336.06
2023-01-13T20:21:23.467Z,96340.78
2023-01-13T20:23:51.453Z,96334.41
2023-01-13T20:26:19.030Z,96342.72
2023-01-13T20:28:46.869Z,96341.75
2023-01-13T20:31:14.435Z,96333.06
2023-01-13T20:33:41.094Z,96342.97
2023-01-13T20:36:15.953Z,96347.97
2023-01-13T20:38:42.402Z,96354.59
2023-01-13T20:41:08.871Z,96353.19
2023-01-13T20:43:35.333Z,96364.00
2023-01-13T20:46:03.550Z,96370.34
2023-01-13T20:48:30.022Z,96370.91
2023-01-13T20:50:56.489Z,96364.50
2023-01-13T20:53:22.960Z,96361.09
2023-01-13T20:55:49.454Z,96358.25
2023-01-13T20:58:16.046Z,96366.22
2023-01-13T21:00:42.531Z,96367.41
2023-01-13T21:03:09.006Z,96374.16
2023-01-13T21:05:36.455Z,96372.22
2023-01-13T21:08:03.016Z,96375.84
2023-01-13T21:10:29.533Z,96386.56
2023-01-13T21:12:56.024Z,96381.22
2023-01-13T21:15:22.796Z,96386.22
2023-01-13T21:17:51.225Z,96379.31
2023-01-13T21:20:18.021Z,96375.25
2023-01-13T21:22:48.810Z,96372.84
2023-01-13T21:25:16.566Z,96373.25
2023-01-13T21:27:43.214Z,96366.25
2023-01-13T21:30:11.218Z,96371.44
2023-01-13T21:32:37.831Z,96362.78
2023-01-13T21:35:04.564Z,96359.22
2023-01-13T21:37:31.050Z,96362.44
2023-01-13T21:39:57.515Z,96367.78
2023-01-13T21:42:23.977Z,96363.34
2023-01-13T21:44:50.467Z,96365.09
2023-01-13T21:47:18.686Z,96362.44
2023-01-13T21:49:45.213Z,96347.16
2023-01-13T21:52:13.713Z,96350.50
2023-01-13T21:54:41.127Z,96356.59
2023-01-13T21:57:07.577Z,96352.19
2023-01-13T21:59:34.059Z,96363.31
2023-01-13T22:02:23.641Z,96361.72
2023-01-13T22:04:46.942Z,96374.19
2023-01-13T22:07:13.387Z,96370.59
2023-01-13T22:09:39.845Z,96375.81
2023-01-13T22:12:06.316Z,96381.31
2023-01-13T22:14:33.171Z,96380.66
2023-01-13T22:16:59.630Z,96378.03
2023-01-13T22:19:26.093Z,96390.22
2023-01-13T22:21:52.628Z,96391.59
2023-01-13T22:24:19.111Z,96392.69
2023-01-13T22:26:45.594Z,96392.69
2023-01-13T22:29:12.061Z,96388.84
2023-01-13T22:31:38.589Z,96384.00
2023-01-13T22:34:05.068Z,96376.81
2023-01-13T22:36:31.557Z,96373.09
2023-01-13T22:38:58.199Z,96376.25
2023-01-13T22:41:24.691Z,96380.59
2023-01-13T22:43:51.311Z,96379.63
2023-01-13T22:46:17.831Z,96379.34
2023-01-13T22:48:44.988Z,96377.28
2023-01-13T22:51:14.969Z,96373.09
2023-01-13T22:53:42.532Z,96375.59
2023-01-13T22:56:16.860Z,96370.88
2023-01-13T22:58:43.950Z,96380.81
2023-01-13T23:01:11.660Z,96372.47
2023-01-13T23:03:39.034Z,96377.41
2023-01-13T23:06:05.614Z,96374.97
2023-01-13T23:08:36.007Z,96376.91
2023-01-13T23:11:05.280Z,96370.47
2023-01-13T23:13:31.748Z,96384.00
2023-01-13T23:16:07.486Z,96372.53
2023-01-13T23:18:34.800Z,96366.72
2023-01-13T23:21:04.436Z,96369.78
2023-01-13T23:23:32.433Z,96365.91
2023-01-13T23:25:59.122Z,96365.34
2023-01-13T23:28:25.992Z,96356.00
2023-01-13T23:30:52.639Z,96356.53
2023-01-13T23:33:20.299Z,96351.22
2023-01-13T23:36:06.507Z,96358.34
2023-01-13T23:38:33.466Z,96356.81
2023-01-13T23:41:00.694Z,96352.91
2023-01-13T23:43:27.170Z,96346.84
2023-01-13T23:46:05.363Z,96352.41
2023-01-13T23:48:32.859Z,96339.13
2023-01-13T23:51:05.533Z,96344.34
2023-01-13T23:53:34.564Z,96341.84
2023-01-13T23:56:03.919Z,96337.47
2023-01-13T23:58:30.858Z,96341.59
